sensor_id;sensor_type;location;lat;lon;timestamp;P1;durP1;ratioP1;P2;durP2;ratioP2
71343;SDS011;59146;43.850;25.948;2024-03-02T00:00:42;32.00;;;10.27;;
71343;SDS011;59146;43.850;25.948;2024-03-02T00:03:07;37.00;;;11.45;;
71343;SDS011;59146;43.850;25.948;2024-03-02T00:05:34;34.53;;;11.43;;
71343;SDS011;59146;43.850;25.948;2024-03-02T00:08:00;27.92;;;9.98;;
71343;SDS011;59146;43.850;25.948;2024-03-02T00:10:27;21.77;;;9.52;;
71343;SDS011;59146;43.850;25.948;2024-03-02T00:13:07;29.15;;;9.55;;
71343;SDS011;59146;43.850;25.948;2024-03-02T00:18:32;36.33;;;10.20;;
71343;SDS011;59146;43.850;25.948;2024-03-02T00:20:59;30.52;;;11.63;;
71343;SDS011;59146;43.850;25.948;2024-03-02T00:23:30;28.33;;;11.60;;
71343;SDS011;59146;43.850;25.948;2024-03-02T00:25:56;27.15;;;9.90;;
71343;SDS011;59146;43.850;25.948;2024-03-02T00:28:32;33.50;;;10.57;;
71343;SDS011;59146;43.850;25.948;2024-03-02T00:31:01;37.22;;;12.32;;
71343;SDS011;59146;43.850;25.948;2024-03-02T00:33:27;35.72;;;11.57;;
71343;SDS011;59146;43.850;25.948;2024-03-02T00:35:56;35.67;;;11.60;;
71343;SDS011;59146;43.850;25.948;2024-03-02T00:38:22;35.10;;;13.70;;
71343;SDS011;59146;43.850;25.948;2024-03-02T00:40:47;46.40;;;13.15;;
71343;SDS011;59146;43.850;25.948;2024-03-02T00:43:22;37.10;;;12.00;;
71343;SDS011;59146;43.850;25.948;2024-03-02T00:46:12;38.42;;;12.45;;
71343;SDS011;59146;43.850;25.948;2024-03-02T00:48:44;28.92;;;9.82;;
71343;SDS011;59146;43.850;25.948;2024-03-02T00:51:19;23.17;;;9.45;;
71343;SDS011;59146;43.850;25.948;2024-03-02T00:53:45;24.58;;;10.23;;
71343;SDS011;59146;43.850;25.948;2024-03-02T00:56:10;29.73;;;11.18;;
71343;SDS011;59146;43.850;25.948;2024-03-02T00:58:39;27.10;;;10.82;;
71343;SDS011;59146;43.850;25.948;2024-03-02T01:01:05;26.58;;;10.63;;
71343;SDS011;59146;43.850;25.948;2024-03-02T01:03:32;25.73;;;10.32;;
71343;SDS011;59146;43.850;25.948;2024-03-02T01:05:57;28.45;;;12.88;;
71343;SDS011;59146;43.850;25.948;2024-03-02T01:08:23;23.60;;;11.18;;
71343;SDS011;59146;43.850;25.948;2024-03-02T01:10:49;28.38;;;11.48;;
71343;SDS011;59146;43.850;25.948;2024-03-02T01:13:14;26.90;;;11.40;;
71343;SDS011;59146;43.850;25.948;2024-03-02T01:15:40;28.45;;;14.48;;
71343;SDS011;59146;43.850;25.948;2024-03-02T01:18:05;30.75;;;12.55;;
71343;SDS011;59146;43.850;25.948;2024-03-02T01:20:31;27.90;;;12.07;;
71343;SDS011;59146;43.850;25.948;2024-03-02T01:22:56;32.47;;;14.70;;
71343;SDS011;59146;43.850;25.948;2024-03-02T01:25:22;33.47;;;13.25;;
71343;SDS011;59146;43.850;25.948;2024-03-02T01:27:47;32.60;;;13.75;;
71343;SDS011;59146;43.850;25.948;2024-03-02T01:30:13;42.88;;;16.15;;
71343;SDS011;59146;43.850;25.948;2024-03-02T01:32:39;31.42;;;13.13;;
71343;SDS011;59146;43.850;25.948;2024-03-02T01:35:05;37.65;;;15.80;;
71343;SDS011;59146;43.850;25.948;2024-03-02T01:37:32;39.85;;;16.27;;
71343;SDS011;59146;43.850;25.948;2024-03-02T01:39:57;48.38;;;18.00;;
71343;SDS011;59146;43.850;25.948;2024-03-02T01:42:23;43.60;;;17.33;;
71343;SDS011;59146;43.850;25.948;2024-03-02T01:44:48;49.78;;;19.48;;
71343;SDS011;59146;43.850;25.948;2024-03-02T01:47:14;58.25;;;20.77;;
71343;SDS011;59146;43.850;25.948;2024-03-02T01:49:39;39.80;;;17.40;;
71343;SDS011;59146;43.850;25.948;2024-03-02T01:52:06;49.95;;;19.90;;
71343;SDS011;59146;43.850;25.948;2024-03-02T01:54:32;52.15;;;20.58;;
71343;SDS011;59146;43.850;25.948;2024-03-02T01:56:57;52.03;;;21.55;;
71343;SDS011;59146;43.850;25.948;2024-03-02T01:59:23;58.95;;;22.25;;
71343;SDS011;59146;43.850;25.948;2024-03-02T02:01:48;57.92;;;22.40;;
71343;SDS011;59146;43.850;25.948;2024-03-02T02:04:14;67.35;;;23.50;;
71343;SDS011;59146;43.850;25.948;2024-03-02T02:06:39;66.45;;;23.48;;
71343;SDS011;59146;43.850;25.948;2024-03-02T02:09:05;74.47;;;24.30;;
71343;SDS011;59146;43.850;25.948;2024-03-02T02:11:33;56.00;;;23.23;;
71343;SDS011;59146;43.850;25.948;2024-03-02T02:13:59;50.63;;;20.00;;
71343;SDS011;59146;43.850;25.948;2024-03-02T02:16:24;57.35;;;20.88;;
71343;SDS011;59146;43.850;25.948;2024-03-02T02:18:50;59.63;;;22.83;;
71343;SDS011;59146;43.850;25.948;2024-03-02T02:21:15;52.38;;;21.60;;
71343;SDS011;59146;43.850;25.948;2024-03-02T02:23:40;53.25;;;19.17;;
71343;SDS011;59146;43.850;25.948;2024-03-02T02:26:11;49.72;;;20.42;;
71343;SDS011;59146;43.850;25.948;2024-03-02T02:28:37;56.25;;;20.08;;
71343;SDS011;59146;43.850;25.948;2024-03-02T02:31:02;50.08;;;22.33;;
71343;SDS011;59146;43.850;25.948;2024-03-02T02:33:28;50.83;;;21.77;;
71343;SDS011;59146;43.850;25.948;2024-03-02T02:35:53;51.10;;;21.00;;
71343;SDS011;59146;43.850;25.948;2024-03-02T02:38:19;49.45;;;20.80;;
71343;SDS011;59146;43.850;25.948;2024-03-02T02:40:45;49.60;;;24.63;;
71343;SDS011;59146;43.850;25.948;2024-03-02T02:43:10;64.68;;;26.15;;
71343;SDS011;59146;43.850;25.948;2024-03-02T02:45:36;56.60;;;25.02;;
71343;SDS011;59146;43.850;25.948;2024-03-02T02:48:01;46.78;;;22.17;;
71343;SDS011;59146;43.850;25.948;2024-03-02T02:50:28;62.83;;;25.08;;
71343;SDS011;59146;43.850;25.948;2024-03-02T02:52:53;57.45;;;22.17;;
71343;SDS011;59146;43.850;25.948;2024-03-02T02:55:19;62.80;;;22.85;;
71343;SDS011;59146;43.850;25.948;2024-03-02T02:57:44;59.75;;;22.63;;
71343;SDS011;59146;43.850;25.948;2024-03-02T03:00:11;59.50;;;24.02;;
71343;SDS011;59146;43.850;25.948;2024-03-02T03:02:44;69.20;;;25.48;;
71343;SDS011;59146;43.850;25.948;2024-03-02T03:05:11;61.05;;;27.13;;
71343;SDS011;59146;43.850;25.948;2024-03-02T03:07:39;69.15;;;29.30;;
71343;SDS011;59146;43.850;25.948;2024-03-02T03:10:04;62.83;;;27.27;;
71343;SDS011;59146;43.850;25.948;2024-03-02T03:12:31;57.42;;;27.75;;
71343;SDS011;59146;43.850;25.948;2024-03-02T03:14:57;65.55;;;30.40;;
71343;SDS011;59146;43.850;25.948;2024-03-02T03:17:22;63.55;;;30.77;;
71343;SDS011;59146;43.850;25.948;2024-03-02T03:19:48;61.47;;;33.40;;
71343;SDS011;59146;43.850;25.948;2024-03-02T03:22:16;67.47;;;34.38;;
71343;SDS011;59146;43.850;25.948;2024-03-02T03:24:47;74.75;;;38.28;;
71343;SDS011;59146;43.850;25.948;2024-03-02T03:27:13;83.78;;;40.13;;
71343;SDS011;59146;43.850;25.948;2024-03-02T03:29:38;90.03;;;42.60;;
71343;SDS011;59146;43.850;25.948;2024-03-02T03:32:04;80.57;;;41.17;;
71343;SDS011;59146;43.850;25.948;2024-03-02T03:34:34;100.07;;;45.10;;
71343;SDS011;59146;43.850;25.948;2024-03-02T03:37:00;100.32;;;44.83;;
71343;SDS011;59146;43.850;25.948;2024-03-02T03:39:25;104.40;;;42.88;;
71343;SDS011;59146;43.850;25.948;2024-03-02T03:41:50;102.70;;;39.45;;
71343;SDS011;59146;43.850;25.948;2024-03-02T03:44:16;102.53;;;39.30;;
71343;SDS011;59146;43.850;25.948;2024-03-02T03:46:41;88.18;;;35.85;;
71343;SDS011;59146;43.850;25.948;2024-03-02T03:49:07;99.00;;;37.60;;
71343;SDS011;59146;43.850;25.948;2024-03-02T03:51:33;94.28;;;36.33;;
71343;SDS011;59146;43.850;25.948;2024-03-02T03:53:58;90.50;;;35.47;;
71343;SDS011;59146;43.850;25.948;2024-03-02T03:56:24;83.55;;;27.27;;
71343;SDS011;59146;43.850;25.948;2024-03-02T03:58:50;83.60;;;32.13;;
71343;SDS011;59146;43.850;25.948;2024-03-02T04:01:15;91.45;;;33.05;;
71343;SDS011;59146;43.850;25.948;2024-03-02T04:03:41;78.10;;;30.50;;
71343;SDS011;59146;43.850;25.948;2024-03-02T04:06:06;82.43;;;29.15;;
71343;SDS011;59146;43.850;25.948;2024-03-02T04:08:31;71.18;;;27.55;;
71343;SDS011;59146;43.850;25.948;2024-03-02T04:10:57;77.97;;;27.38;;
71343;SDS011;59146;43.850;25.948;2024-03-02T04:13:22;64.50;;;25.40;;
71343;SDS011;59146;43.850;25.948;2024-03-02T04:15:48;66.43;;;26.20;;
71343;SDS011;59146;43.850;25.948;2024-03-02T04:18:13;66.78;;;24.10;;
71343;SDS011;59146;43.850;25.948;2024-03-02T04:20:39;70.82;;;24.83;;
71343;SDS011;59146;43.850;25.948;2024-03-02T04:23:04;57.45;;;24.23;;
71343;SDS011;59146;43.850;25.948;2024-03-02T04:25:30;74.20;;;23.63;;
71343;SDS011;59146;43.850;25.948;2024-03-02T04:27:55;55.60;;;20.92;;
71343;SDS011;59146;43.850;25.948;2024-03-02T04:30:20;59.85;;;21.08;;
71343;SDS011;59146;43.850;25.948;2024-03-02T04:32:46;47.58;;;19.85;;
71343;SDS011;59146;43.850;25.948;2024-03-02T04:35:12;46.67;;;18.42;;
71343;SDS011;59146;43.850;25.948;2024-03-02T04:37:38;29.45;;;15.20;;
71343;SDS011;59146;43.850;25.948;2024-03-02T04:40:03;38.28;;;15.98;;
71343;SDS011;59146;43.850;25.948;2024-03-02T04:42:33;34.47;;;14.60;;
71343;SDS011;59146;43.850;25.948;2024-03-02T04:44:58;42.42;;;14.57;;
71343;SDS011;59146;43.850;25.948;2024-03-02T04:47:24;40.55;;;14.65;;
71343;SDS011;59146;43.850;25.948;2024-03-02T04:49:49;27.80;;;11.95;;
71343;SDS011;59146;43.850;25.948;2024-03-02T04:52:15;32.97;;;11.85;;
71343;SDS011;59146;43.850;25.948;2024-03-02T04:54:41;36.42;;;13.13;;
71343;SDS011;59146;43.850;25.948;2024-03-02T04:57:25;36.03;;;13.48;;
71343;SDS011;59146;43.850;25.948;2024-03-02T04:59:50;36.40;;;13.32;;
71343;SDS011;59146;43.850;25.948;2024-03-02T05:02:16;45.35;;;13.05;;
71343;SDS011;59146;43.850;25.948;2024-03-02T05:04:41;36.70;;;13.43;;
71343;SDS011;59146;43.850;25.948;2024-03-02T05:07:07;40.83;;;14.60;;
71343;SDS011;59146;43.850;25.948;2024-03-02T05:09:32;29.00;;;13.07;;
71343;SDS011;59146;43.850;25.948;2024-03-02T05:11:58;44.08;;;14.57;;
71343;SDS011;59146;43.850;25.948;2024-03-02T05:14:54;38.35;;;11.50;;
71343;SDS011;59146;43.850;25.948;2024-03-02T05:17:21;40.22;;;13.00;;
71343;SDS011;59146;43.850;25.948;2024-03-02T05:19:46;35.67;;;11.82;;
71343;SDS011;59146;43.850;25.948;2024-03-02T05:22:11;30.55;;;12.80;;
71343;SDS011;59146;43.850;25.948;2024-03-02T05:24:37;28.85;;;10.95;;
71343;SDS011;59146;43.850;25.948;2024-03-02T05:27:02;39.42;;;11.68;;
71343;SDS011;59146;43.850;25.948;2024-03-02T05:29:28;38.50;;;14.77;;
71343;SDS011;59146;43.850;25.948;2024-03-02T05:31:53;34.00;;;14.13;;
71343;SDS011;59146;43.850;25.948;2024-03-02T05:34:19;33.22;;;12.95;;
71343;SDS011;59146;43.850;25.948;2024-03-02T05:36:44;37.85;;;14.98;;
71343;SDS011;59146;43.850;25.948;2024-03-02T05:39:09;31.70;;;13.75;;
71343;SDS011;59146;43.850;25.948;2024-03-02T05:41:35;38.92;;;14.65;;
71343;SDS011;59146;43.850;25.948;2024-03-02T05:44:01;38.10;;;14.88;;
71343;SDS011;59146;43.850;25.948;2024-03-02T05:46:26;39.45;;;16.70;;
71343;SDS011;59146;43.850;25.948;2024-03-02T05:48:52;44.05;;;17.95;;
71343;SDS011;59146;43.850;25.948;2024-03-02T05:51:18;39.22;;;16.42;;
71343;SDS011;59146;43.850;25.948;2024-03-02T05:53:43;40.63;;;15.70;;
71343;SDS011;59146;43.850;25.948;2024-03-02T05:56:09;36.40;;;16.23;;
71343;SDS011;59146;43.850;25.948;2024-03-02T05:58:34;32.42;;;16.02;;
71343;SDS011;59146;43.850;25.948;2024-03-02T06:01:18;36.63;;;17.33;;
71343;SDS011;59146;43.850;25.948;2024-03-02T06:03:44;39.40;;;16.02;;
71343;SDS011;59146;43.850;25.948;2024-03-02T06:06:10;42.55;;;15.85;;
71343;SDS011;59146;43.850;25.948;2024-03-02T06:08:35;43.00;;;16.27;;
71343;SDS011;59146;43.850;25.948;2024-03-02T06:11:01;34.13;;;16.08;;
71343;SDS011;59146;43.850;25.948;2024-03-02T06:13:26;44.40;;;16.80;;
71343;SDS011;59146;43.850;25.948;2024-03-02T06:15:52;35.30;;;16.20;;
71343;SDS011;59146;43.850;25.948;2024-03-02T06:18:18;40.58;;;15.85;;
71343;SDS011;59146;43.850;25.948;2024-03-02T06:20:43;34.63;;;14.52;;
71343;SDS011;59146;43.850;25.948;2024-03-02T06:23:09;40.42;;;17.70;;
71343;SDS011;59146;43.850;25.948;2024-03-02T06:25:34;40.92;;;16.80;;
71343;SDS011;59146;43.850;25.948;2024-03-02T06:27:59;30.17;;;14.60;;
71343;SDS011;59146;43.850;25.948;2024-03-02T06:30:25;37.10;;;15.63;;
71343;SDS011;59146;43.850;25.948;2024-03-02T06:32:50;30.38;;;14.13;;
71343;SDS011;59146;43.850;25.948;2024-03-02T06:35:16;37.70;;;14.35;;
71343;SDS011;59146;43.850;25.948;2024-03-02T06:37:41;41.78;;;16.98;;
71343;SDS011;59146;43.850;25.948;2024-03-02T06:40:07;31.67;;;14.80;;
71343;SDS011;59146;43.850;25.948;2024-03-02T06:42:33;33.05;;;15.93;;
71343;SDS011;59146;43.850;25.948;2024-03-02T06:44:59;37.35;;;16.92;;
71343;SDS011;59146;43.850;25.948;2024-03-02T06:47:25;29.92;;;16.38;;
71343;SDS011;59146;43.850;25.948;2024-03-02T06:49:50;28.25;;;15.30;;
71343;SDS011;59146;43.850;25.948;2024-03-02T06:52:16;31.90;;;15.68;;
71343;SDS011;59146;43.850;25.948;2024-03-02T06:54:41;29.02;;;15.07;;
71343;SDS011;59146;43.850;25.948;2024-03-02T06:57:07;34.05;;;17.92;;
71343;SDS011;59146;43.850;25.948;2024-03-02T06:59:33;32.10;;;16.92;;
71343;SDS011;59146;43.850;25.948;2024-03-02T07:01:58;37.22;;;15.68;;
71343;SDS011;59146;43.850;25.948;2024-03-02T07:04:24;45.25;;;16.88;;
71343;SDS011;59146;43.850;25.948;2024-03-02T07:06:49;42.90;;;18.30;;
71343;SDS011;59146;43.850;25.948;2024-03-02T07:09:16;32.70;;;15.80;;
71343;SDS011;59146;43.850;25.948;2024-03-02T07:11:41;38.97;;;15.93;;
71343;SDS011;59146;43.850;25.948;2024-03-02T07:14:07;38.50;;;18.45;;
71343;SDS011;59146;43.850;25.948;2024-03-02T07:16:32;46.67;;;16.20;;
71343;SDS011;59146;43.850;25.948;2024-03-02T07:18:59;40.30;;;16.45;;
71343;SDS011;59146;43.850;25.948;2024-03-02T07:21:26;35.80;;;17.05;;
71343;SDS011;59146;43.850;25.948;2024-03-02T07:23:52;42.20;;;18.58;;
71343;SDS011;59146;43.850;25.948;2024-03-02T07:26:18;39.92;;;16.75;;
71343;SDS011;59146;43.850;25.948;2024-03-02T07:28:44;35.03;;;16.92;;
71343;SDS011;59146;43.850;25.948;2024-03-02T07:31:13;36.63;;;16.55;;
71343;SDS011;59146;43.850;25.948;2024-03-02T07:33:39;44.38;;;17.25;;
71343;SDS011;59146;43.850;25.948;2024-03-02T07:36:04;38.55;;;17.88;;
71343;SDS011;59146;43.850;25.948;2024-03-02T07:38:30;42.92;;;17.58;;
71343;SDS011;59146;43.850;25.948;2024-03-02T07:40:57;30.15;;;15.35;;
71343;SDS011;59146;43.850;25.948;2024-03-02T07:43:22;27.65;;;15.27;;
71343;SDS011;59146;43.850;25.948;2024-03-02T07:45:49;31.95;;;14.40;;
71343;SDS011;59146;43.850;25.948;2024-03-02T07:48:15;29.58;;;14.45;;
71343;SDS011;59146;43.850;25.948;2024-03-02T07:50:40;27.77;;;14.73;;
71343;SDS011;59146;43.850;25.948;2024-03-02T07:53:06;33.55;;;14.68;;
71343;SDS011;59146;43.850;25.948;2024-03-02T07:55:33;30.75;;;13.55;;
71343;SDS011;59146;43.850;25.948;2024-03-02T07:57:58;33.17;;;14.77;;
71343;SDS011;59146;43.850;25.948;2024-03-02T08:00:25;28.02;;;14.38;;
71343;SDS011;59146;43.850;25.948;2024-03-02T08:02:51;28.42;;;14.80;;
71343;SDS011;59146;43.850;25.948;2024-03-02T08:05:17;26.30;;;13.80;;
71343;SDS011;59146;43.850;25.948;2024-03-02T08:07:44;24.52;;;13.85;;
71343;SDS011;59146;43.850;25.948;2024-03-02T08:10:10;31.88;;;13.23;;
71343;SDS011;59146;43.850;25.948;2024-03-02T08:12:36;25.98;;;13.57;;
71343;SDS011;59146;43.850;25.948;2024-03-02T08:15:02;24.90;;;14.00;;
71343;SDS011;59146;43.850;25.948;2024-03-02T08:17:27;30.10;;;13.57;;
71343;SDS011;59146;43.850;25.948;2024-03-02T08:19:53;28.13;;;14.23;;
71343;SDS011;59146;43.850;25.948;2024-03-02T08:22:19;26.88;;;14.07;;
71343;SDS011;59146;43.850;25.948;2024-03-02T08:24:44;24.27;;;14.63;;
71343;SDS011;59146;43.850;25.948;2024-03-02T08:27:10;23.27;;;13.00;;
71343;SDS011;59146;43.850;25.948;2024-03-02T08:29:37;24.48;;;13.95;;
71343;SDS011;59146;43.850;25.948;2024-03-02T08:32:02;30.95;;;15.57;;
71343;SDS011;59146;43.850;25.948;2024-03-02T08:34:28;31.15;;;14.20;;
71343;SDS011;59146;43.850;25.948;2024-03-02T08:36:53;33.13;;;14.88;;
71343;SDS011;59146;43.850;25.948;2024-03-02T08:39:19;29.38;;;14.23;;
71343;SDS011;59146;43.850;25.948;2024-03-02T08:41:45;25.50;;;13.75;;
71343;SDS011;59146;43.850;25.948;2024-03-02T08:44:12;31.35;;;14.15;;
71343;SDS011;59146;43.850;25.948;2024-03-02T08:46:39;31.13;;;13.98;;
71343;SDS011;59146;43.850;25.948;2024-03-02T08:49:05;36.17;;;12.90;;
71343;SDS011;59146;43.850;25.948;2024-03-02T08:51:31;26.13;;;12.98;;
71343;SDS011;59146;43.850;25.948;2024-03-02T08:53:57;28.13;;;13.68;;
71343;SDS011;59146;43.850;25.948;2024-03-02T08:56:23;23.33;;;12.60;;
71343;SDS011;59146;43.850;25.948;2024-03-02T08:58:49;25.77;;;13.00;;
71343;SDS011;59146;43.850;25.948;2024-03-02T09:01:16;27.73;;;12.38;;
71343;SDS011;59146;43.850;25.948;2024-03-02T09:03:42;26.65;;;12.52;;
71343;SDS011;59146;43.850;25.948;2024-03-02T09:06:11;27.50;;;13.50;;
71343;SDS011;59146;43.850;25.948;2024-03-02T09:08:37;25.02;;;12.65;;
71343;SDS011;59146;43.850;25.948;2024-03-02T09:11:04;24.23;;;12.43;;
71343;SDS011;59146;43.850;25.948;2024-03-02T09:13:30;27.63;;;13.30;;
71343;SDS011;59146;43.850;25.948;2024-03-02T09:15:56;27.27;;;11.85;;
71343;SDS011;59146;43.850;25.948;2024-03-02T09:18:22;24.65;;;13.98;;
71343;SDS011;59146;43.850;25.948;2024-03-02T09:20:47;27.27;;;12.80;;
71343;SDS011;59146;43.850;25.948;2024-03-02T09:23:12;24.83;;;13.30;;
71343;SDS011;59146;43.850;25.948;2024-03-02T09:25:38;25.88;;;13.18;;
71343;SDS011;59146;43.850;25.948;2024-03-02T09:28:03;25.88;;;13.52;;
71343;SDS011;59146;43.850;25.948;2024-03-02T09:30:29;21.92;;;12.77;;
71343;SDS011;59146;43.850;25.948;2024-03-02T09:32:54;22.70;;;12.52;;
71343;SDS011;59146;43.850;25.948;2024-03-02T09:35:20;28.35;;;13.38;;
71343;SDS011;59146;43.850;25.948;2024-03-02T09:37:47;41.67;;;16.67;;
71343;SDS011;59146;43.850;25.948;2024-03-02T09:40:13;23.88;;;12.43;;
71343;SDS011;59146;43.850;25.948;2024-03-02T09:42:39;31.40;;;11.95;;
71343;SDS011;59146;43.850;25.948;2024-03-02T09:45:06;25.67;;;11.95;;
71343;SDS011;59146;43.850;25.948;2024-03-02T09:47:32;27.60;;;13.88;;
71343;SDS011;59146;43.850;25.948;2024-03-02T09:49:57;31.40;;;12.57;;
71343;SDS011;59146;43.850;25.948;2024-03-02T09:52:23;25.65;;;12.88;;
71343;SDS011;59146;43.850;25.948;2024-03-02T09:54:49;26.33;;;13.70;;
71343;SDS011;59146;43.850;25.948;2024-03-02T09:57:15;25.77;;;12.98;;
71343;SDS011;59146;43.850;25.948;2024-03-02T09:59:40;26.90;;;13.50;;
71343;SDS011;59146;43.850;25.948;2024-03-02T10:02:06;31.77;;;13.77;;
71343;SDS011;59146;43.850;25.948;2024-03-02T10:04:32;27.05;;;13.82;;
71343;SDS011;59146;43.850;25.948;2024-03-02T10:09:38;30.67;;;14.35;;
71343;SDS011;59146;43.850;25.948;2024-03-02T10:12:05;27.08;;;14.43;;
71343;SDS011;59146;43.850;25.948;2024-03-02T10:14:40;25.98;;;14.23;;
71343;SDS011;59146;43.850;25.948;2024-03-02T10:17:07;25.38;;;13.70;;
71343;SDS011;59146;43.850;25.948;2024-03-02T10:19:34;31.67;;;15.35;;
71343;SDS011;59146;43.850;25.948;2024-03-02T10:22:02;33.00;;;15.43;;
71343;SDS011;59146;43.850;25.948;2024-03-02T10:24:41;25.92;;;14.18;;
71343;SDS011;59146;43.850;25.948;2024-03-02T10:29:40;26.50;;;14.80;;
71343;SDS011;59146;43.850;25.948;2024-03-02T10:32:09;26.70;;;15.27;;
71343;SDS011;59146;43.850;25.948;2024-03-02T10:34:36;29.80;;;14.32;;
71343;SDS011;59146;43.850;25.948;2024-03-02T10:37:03;26.80;;;14.05;;
71343;SDS011;59146;43.850;25.948;2024-03-02T10:39:28;22.77;;;13.98;;
71343;SDS011;59146;43.850;25.948;2024-03-02T10:41:58;27.52;;;14.55;;
71343;SDS011;59146;43.850;25.948;2024-03-02T10:44:28;31.75;;;14.85;;
71343;SDS011;59146;43.850;25.948;2024-03-02T10:46:55;26.27;;;14.52;;
71343;SDS011;59146;43.850;25.948;2024-03-02T10:49:21;25.17;;;14.43;;
71343;SDS011;59146;43.850;25.948;2024-03-02T10:51:48;24.45;;;14.40;;
71343;SDS011;59146;43.850;25.948;2024-03-02T10:54:13;27.67;;;14.93;;
71343;SDS011;59146;43.850;25.948;2024-03-02T10:56:40;29.77;;;14.30;;
71343;SDS011;59146;43.850;25.948;2024-03-02T11:01:51;31.95;;;14.40;;
71343;SDS011;59146;43.850;25.948;2024-03-02T11:04:20;36.05;;;15.45;;
71343;SDS011;59146;43.850;25.948;2024-03-02T11:06:49;32.85;;;16.00;;
71343;SDS011;59146;43.850;25.948;2024-03-02T11:09:17;26.80;;;14.60;;
71343;SDS011;59146;43.850;25.948;2024-03-02T11:11:45;29.23;;;14.85;;
71343;SDS011;59146;43.850;25.948;2024-03-02T11:14:21;30.17;;;14.88;;
71343;SDS011;59146;43.850;25.948;2024-03-02T11:16:50;28.48;;;14.85;;
71343;SDS011;59146;43.850;25.948;2024-03-02T11:19:17;28.55;;;16.42;;
71343;SDS011;59146;43.850;25.948;2024-03-02T11:21:43;29.75;;;15.30;;
71343;SDS011;59146;43.850;25.948;2024-03-02T11:26:52;26.05;;;14.93;;
71343;SDS011;59146;43.850;25.948;2024-03-02T11:32:04;31.85;;;16.45;;
71343;SDS011;59146;43.850;25.948;2024-03-02T11:34:32;31.17;;;14.80;;
71343;SDS011;59146;43.850;25.948;2024-03-02T11:36:59;27.30;;;14.45;;
71343;SDS011;59146;43.850;25.948;2024-03-02T11:39:27;26.42;;;14.90;;
71343;SDS011;59146;43.850;25.948;2024-03-02T11:41:54;32.50;;;15.70;;
71343;SDS011;59146;43.850;25.948;2024-03-02T11:44:21;27.23;;;14.85;;
71343;SDS011;59146;43.850;25.948;2024-03-02T11:46:51;29.05;;;14.52;;
71343;SDS011;59146;43.850;25.948;2024-03-02T11:50:01;30.95;;;14.32;;
71343;SDS011;59146;43.850;25.948;2024-03-02T11:52:12;28.13;;;14.95;;
71343;SDS011;59146;43.850;25.948;2024-03-02T11:54:40;26.17;;;13.98;;
71343;SDS011;59146;43.850;25.948;2024-03-02T11:57:15;30.38;;;16.70;;
71343;SDS011;59146;43.850;25.948;2024-03-02T11:59:42;27.40;;;15.60;;
71343;SDS011;59146;43.850;25.948;2024-03-02T12:02:12;34.40;;;16.45;;
71343;SDS011;59146;43.850;25.948;2024-03-02T12:04:42;31.17;;;17.40;;
71343;SDS011;59146;43.850;25.948;2024-03-02T12:07:11;32.17;;;15.63;;
71343;SDS011;59146;43.850;25.948;2024-03-02T12:09:40;27.42;;;14.63;;
71343;SDS011;59146;43.850;25.948;2024-03-02T12:12:07;31.13;;;15.98;;
71343;SDS011;59146;43.850;25.948;2024-03-02T12:14:34;28.25;;;14.60;;
71343;SDS011;59146;43.850;25.948;2024-03-02T12:17:03;31.45;;;15.70;;
71343;SDS011;59146;43.850;25.948;2024-03-02T12:19:30;33.97;;;16.27;;
71343;SDS011;59146;43.850;25.948;2024-03-02T12:21:57;27.05;;;15.80;;
71343;SDS011;59146;43.850;25.948;2024-03-02T12:24:24;30.88;;;15.52;;
71343;SDS011;59146;43.850;25.948;2024-03-02T12:26:51;22.20;;;14.35;;
71343;SDS011;59146;43.850;25.948;2024-03-02T12:29:21;31.27;;;15.25;;
71343;SDS011;59146;43.850;25.948;2024-03-02T12:31:51;31.50;;;14.68;;
71343;SDS011;59146;43.850;25.948;2024-03-02T12:34:18;28.15;;;14.80;;
71343;SDS011;59146;43.850;25.948;2024-03-02T12:36:45;28.63;;;14.38;;
71343;SDS011;59146;43.850;25.948;2024-03-02T12:39:14;24.58;;;14.82;;
71343;SDS011;59146;43.850;25.948;2024-03-02T12:41:41;27.13;;;15.07;;
71343;SDS011;59146;43.850;25.948;2024-03-02T12:44:07;23.42;;;14.38;;
71343;SDS011;59146;43.850;25.948;2024-03-02T12:46:32;26.10;;;13.88;;
71343;SDS011;59146;43.850;25.948;2024-03-02T12:48:58;30.23;;;14.70;;
71343;SDS011;59146;43.850;25.948;2024-03-02T12:51:29;28.40;;;15.93;;
71343;SDS011;59146;43.850;25.948;2024-03-02T12:53:56;22.38;;;13.68;;
71343;SDS011;59146;43.850;25.948;2024-03-02T12:56:23;25.33;;;14.13;;
71343;SDS011;59146;43.850;25.948;2024-03-02T12:58:56;30.42;;;14.45;;
71343;SDS011;59146;43.850;25.948;2024-03-02T13:01:24;25.80;;;14.00;;
71343;SDS011;59146;43.850;25.948;2024-03-02T13:03:49;27.80;;;15.13;;
71343;SDS011;59146;43.850;25.948;2024-03-02T13:06:20;27.42;;;14.20;;
71343;SDS011;59146;43.850;25.948;2024-03-02T13:08:46;28.20;;;13.95;;
71343;SDS011;59146;43.850;25.948;2024-03-02T13:11:13;23.25;;;14.35;;
71343;SDS011;59146;43.850;25.948;2024-03-02T13:13:39;27.65;;;14.73;;
71343;SDS011;59146;43.850;25.948;2024-03-02T13:16:14;22.65;;;12.65;;
71343;SDS011;59146;43.850;25.948;2024-03-02T13:18:41;25.70;;;13.35;;
71343;SDS011;59146;43.850;25.948;2024-03-02T13:21:08;28.45;;;14.13;;
71343;SDS011;59146;43.850;25.948;2024-03-02T13:23:34;20.67;;;12.95;;
71343;SDS011;59146;43.850;25.948;2024-03-02T13:26:00;28.58;;;14.82;;
71343;SDS011;59146;43.850;25.948;2024-03-02T13:28:26;22.10;;;12.98;;
71343;SDS011;59146;43.850;25.948;2024-03-02T13:30:52;24.23;;;13.15;;
71343;SDS011;59146;43.850;25.948;2024-03-02T13:33:18;28.25;;;12.80;;
71343;SDS011;59146;43.850;25.948;2024-03-02T13:35:50;19.50;;;12.48;;
71343;SDS011;59146;43.850;25.948;2024-03-02T13:38:20;24.08;;;12.77;;
71343;SDS011;59146;43.850;25.948;2024-03-02T13:40:46;19.05;;;11.35;;
71343;SDS011;59146;43.850;25.948;2024-03-02T13:43:16;25.58;;;13.82;;
71343;SDS011;59146;43.850;25.948;2024-03-02T13:45:42;30.48;;;14.00;;
71343;SDS011;59146;43.850;25.948;2024-03-02T13:48:08;23.30;;;13.77;;
71343;SDS011;59146;43.850;25.948;2024-03-02T13:50:33;26.70;;;13.35;;
71343;SDS011;59146;43.850;25.948;2024-03-02T13:52:59;24.85;;;14.50;;
71343;SDS011;59146;43.850;25.948;2024-03-02T13:55:24;32.22;;;14.10;;
71343;SDS011;59146;43.850;25.948;2024-03-02T13:57:50;24.10;;;12.38;;
71343;SDS011;59146;43.850;25.948;2024-03-02T14:00:18;30.02;;;13.40;;
71343;SDS011;59146;43.850;25.948;2024-03-02T14:02:47;21.63;;;13.13;;
71343;SDS011;59146;43.850;25.948;2024-03-02T14:05:15;19.40;;;11.93;;
71343;SDS011;59146;43.850;25.948;2024-03-02T14:07:41;22.85;;;13.35;;
71343;SDS011;59146;43.850;25.948;2024-03-02T14:10:07;23.48;;;12.80;;
71343;SDS011;59146;43.850;25.948;2024-03-02T14:12:33;20.58;;;11.85;;
71343;SDS011;59146;43.850;25.948;2024-03-02T14:14:58;23.65;;;12.38;;
71343;SDS011;59146;43.850;25.948;2024-03-02T14:17:24;21.15;;;12.15;;
71343;SDS011;59146;43.850;25.948;2024-03-02T14:19:50;18.23;;;9.95;;
71343;SDS011;59146;43.850;25.948;2024-03-02T14:22:17;22.08;;;11.75;;